Time;durP1;ratioP1;P1;durP2;ratioP2;P2;SDS_P1;SDS_P2;PMS_P1;PMS_P2;Temp;Humidity;BMP_temperature;BMP_pressure;BME280_temperature;BME280_humidity;BME280_pressure;Samples;Min_cycle;Max_cycle;Signal;HPM_P1;HPM_P2
2023/01/23 00:00:46;;;;;;;6.17;3.07;;;;;;;16.87;45.53;97574.75;10362387;28;20049;-27
2023/01/23 00:05:58;;;;;;;5.45;2.90;;;;;;;16.85;45.61;97573.88;10368358;28;20399;-27
2023/01/23 00:10:59;;;;;;;6.00;3.35;;;;;;;16.86;45.69;97567.13;10368442;28;20501;-28
2023/01/23 00:16:06;;;;;;;4.55;3.03;;;;;;;16.86;45.65;97562.06;10370221;28;20026;-27
2023/01/23 00:21:17;;;;;;;3.47;2.55;;;;;;;16.79;45.55;97548.47;10359837;28;20026;-26
2023/01/23 00:26:22;;;;;;;5.40;3.03;;;;;;;16.84;45.81;97554.44;10370223;28;20119;-27
2023/01/23 00:31:25;;;;;;;4.15;2.80;;;;;;;16.85;45.38;97552.78;10368371;28;20034;-26
2023/01/23 00:36:32;;;;;;;3.85;2.60;;;;;;;16.89;45.31;97554.56;10362290;28;20031;-27
2023/01/23 00:41:33;;;;;;;;;;;;;;;16.90;45.34;97559.63;10370911;28;20036;-26
2023/01/23 00:46:33;;;;;;;4.43;2.92;;;;;;;16.88;45.53;97550.28;10360735;28;19924;-27
2023/01/23 00:51:34;;;;;;;3.50;2.50;;;;;;;16.82;45.64;97542.63;10361273;28;20038;-27
2023/01/23 00:56:34;;;;;;;3.97;2.60;;;;;;;16.84;45.17;97554.44;10366942;28;20038;-27
2023/01/23 01:01:35;;;;;;;4.47;2.42;;;;;;;16.85;45.29;97557.84;10367124;28;20072;-26
2023/01/23 01:06:35;;;;;;;4.43;2.87;;;;;;;16.86;45.43;97565.47;10365282;28;20033;-27
2023/01/23 01:11:36;;;;;;;3.30;2.95;;;;;;;16.84;44.96;97566.25;10365049;28;20040;-26
2023/01/23 01:16:36;;;;;;;3.07;2.60;;;;;;;16.86;45.33;97569.66;10366453;28;20497;-27
2023/01/23 01:21:38;;;;;;;3.55;2.70;;;;;;;16.82;45.05;97551.03;10364895;28;20285;-27
2023/01/23 01:26:39;;;;;;;4.57;2.90;;;;;;;16.84;45.58;97556.13;10364789;28;20125;-26
2023/01/23 01:31:39;;;;;;;3.10;2.38;;;;;;;16.84;45.13;97551.06;10366023;28;20121;-27
2023/01/23 01:36:39;;;;;;;3.03;2.50;;;;;;;16.85;45.32;97557.84;10364552;28;20510;-27
2023/01/23 01:41:40;;;;;;;3.90;2.53;;;;;;;16.82;45.44;97563.69;10361570;28;20026;-26
2023/01/23 01:46:40;;;;;;;4.70;2.63;;;;;;;16.86;45.90;97569.66;10365056;28;20038;-27
2023/01/23 01:52:04;;;;;;;4.80;3.03;;;;;;;16.88;45.57;97570.53;10364223;28;20112;-26
2023/01/23 01:57:24;;;;;;;3.85;2.53;;;;;;;16.85;45.48;97570.47;10378361;28;20644;-26
2023/01/23 02:02:31;;;;;;;4.32;2.58;;;;;;;16.85;45.48;97575.53;10357001;28;20088;-26
2023/01/23 02:07:42;;;;;;;4.70;2.70;;;;;;;16.86;45.60;97574.72;10362727;28;20045;-27
2023/01/23 02:12:47;;;;;;;3.35;2.65;;;;;;;16.82;45.24;97565.38;10362657;28;20132;-26
2023/01/23 02:17:50;;;;;;;3.95;3.13;;;;;;;16.84;45.22;97573.84;10357639;28;20113;-27
2023/01/23 02:23:29;;;;;;;5.55;2.33;;;;;;;16.81;45.00;97572.09;10372096;28;20038;-26
2023/01/23 02:28:58;;;;;;;3.97;2.53;;;;;;;16.79;45.05;97565.28;10371530;28;20125;-27
2023/01/23 02:34:04;;;;;;;3.47;2.25;;;;;;;16.82;45.37;97570.44;10371407;28;20038;-27
2023/01/23 02:39:13;;;;;;;2.60;2.40;;;;;;;16.82;45.19;97565.38;10372436;28;20030;-27
2023/01/23 02:44:18;;;;;;;2.95;2.20;;;;;;;16.81;45.49;97568.72;10372541;28;20498;-26
2023/01/23 02:49:24;;;;;;;4.40;1.92;;;;;;;16.82;45.46;97575.50;10364146;28;20080;-26
2023/01/23 02:54:25;;;;;;;3.20;2.50;;;;;;;16.83;45.36;97567.06;10378608;28;20099;-26
2023/01/23 03:04:44;;;;;;;2.72;2.10;;;;;;;16.83;45.19;97554.44;10387205;28;20029;-27
2023/01/23 03:09:48;;;;;;;3.70;2.63;;;;;;;16.80;45.07;97560.28;10380009;28;20501;-27
2023/01/23 03:14:53;;;;;;;3.05;2.40;;;;;;;16.77;45.26;97549.25;10371583;28;20297;-27
2023/01/23 03:19:54;;;;;;;2.70;2.17;;;;;;;16.81;44.81;97564.50;10372224;28;20104;-26
2023/01/23 03:24:56;;;;;;;2.80;2.22;;;;;;;16.84;44.96;97571.31;10372057;28;20034;-26
2023/01/23 03:30:12;;;;;;;3.45;2.30;;;;;;;16.84;45.27;97556.13;10370346;28;20473;-26
2023/01/23 03:35:19;;;;;;;3.92;2.20;;;;;;;16.83;44.85;97549.38;10371490;28;20450;-27
2023/01/23 03:45:44;;;;;;;2.85;2.25;;;;;;;16.84;44.61;97549.38;10352363;28;20139;-27
2023/01/23 03:50:44;;;;;;;2.30;2.08;;;;;;;16.83;45.05;97554.44;10368945;28;20556;-26
2023/01/23 03:55:46;;;;;;;3.20;2.22;;;;;;;16.80;45.01;97544.22;10366824;28;20414;-27
2023/01/23 04:00:46;;;;;;;4.07;1.90;;;;;;;16.80;44.47;97550.16;10366323;28;20041;-27
2023/01/23 04:05:47;;;;;;;2.42;2.08;;;;;;;16.82;45.10;97557.78;10366124;28;20037;-26
2023/01/23 04:10:49;;;;;;;5.47;2.35;;;;;;;16.82;44.93;97557.78;10365935;28;20521;-26
2023/01/23 04:15:50;;;;;;;3.03;2.13;;;;;;;16.81;45.19;97563.66;10365442;28;20078;-26
2023/01/23 04:20:51;;;;;;;3.00;2.28;;;;;;;16.80;45.55;97562.81;10366486;28;20029;-27
2023/01/23 04:25:52;;;;;;;4.32;2.17;;;;;;;16.79;44.50;97558.56;10360314;28;20037;-26
2023/01/23 04:30:53;;;;;;;2.15;1.90;;;;;;;16.79;44.86;97567.81;10364790;28;20126;-25
2023/01/23 04:36:02;;;;;;;3.80;1.95;;;;;;;16.79;45.01;97575.41;10366367;28;20127;-27
2023/01/23 04:41:04;;;;;;;2.47;1.80;;;;;;;16.77;44.93;97569.47;10324078;28;1049775;-27
2023/01/23 04:46:08;;;;;;;2.55;1.80;;;;;;;16.80;45.40;97564.47;10358702;28;20044;-27
2023/01/23 04:51:26;;;;;;;3.53;2.08;;;;;;;16.80;44.53;97560.28;10307432;28;21668;-26
2023/01/23 04:56:27;;;;;;;2.20;1.63;;;;;;;16.80;45.21;97567.88;10320673;28;20034;-27
2023/01/23 05:01:29;;;;;;;3.45;1.73;;;;;;;16.80;44.68;97555.22;10314246;28;20332;-25
2023/01/23 05:06:33;;;;;;;2.15;1.70;;;;;;;16.86;44.55;97562.06;10321640;28;20034;-26
2023/01/23 05:11:33;;;;;;;2.40;1.63;;;;;;;16.90;44.14;97563.84;10307510;28;20042;-27
2023/01/23 05:16:35;;;;;;;2.33;1.77;;;;;;;16.92;43.94;97557.13;10318247;28;20022;-27
2023/01/23 05:21:55;;;;;;;4.03;1.98;;;;;;;16.92;44.19;97565.56;10297254;28;20042;-27
2023/01/23 05:26:56;;;;;;;2.50;1.83;;;;;;;16.92;44.33;97554.59;10355608;28;20494;-27
2023/01/23 05:31:58;;;;;;;2.88;2.05;;;;;;;16.93;43.31;97561.38;10365116;28;20041;-27
2023/01/23 05:37:25;;;;;;;1.97;1.40;;;;;;;16.95;43.05;97559.72;10360528;28;20046;-26
2023/01/23 05:42:28;;;;;;;2.97;1.60;;;;;;;16.96;43.53;97563.94;10363593;28;20044;-26
2023/01/23 05:47:47;;;;;;;3.33;1.80;;;;;;;16.98;42.46;97567.38;10365026;28;20042;-25
2023/01/23 05:52:51;;;;;;;2.10;1.48;;;;;;;16.97;43.00;97553.88;10362656;28;20088;-26
2023/01/23 05:57:52;;;;;;;3.10;1.88;;;;;;;16.97;43.42;97563.13;10364070;28;20030;-26
2023/01/23 06:02:54;;;;;;;2.33;2.00;;;;;;;16.98;42.48;97569.91;10362809;28;20038;-27
2023/01/23 06:07:58;;;;;;;4.28;2.30;;;;;;;16.96;44.11;97569.00;10366458;28;20038;-26
2023/01/23 06:12:58;;;;;;;3.63;1.83;;;;;;;16.92;45.17;97584.97;10363966;28;20034;-26
2023/01/23 06:17:59;;;;;;;8.95;2.65;;;;;;;16.88;45.72;97573.06;10363481;28;20288;-27
2023/01/23 06:22:59;;;;;;;3.78;2.30;;;;;;;16.92;44.56;97590.00;10367348;28;20055;-27
2023/01/23 06:28:01;;;;;;;4.75;2.30;;;;;;;17.01;45.62;97590.19;10367942;28;20041;-27
2023/01/23 06:33:04;;;;;;;4.63;2.50;;;;;;;16.66;38.54;97601.28;10360588;28;20494;-27
2023/01/23 06:38:10;;;;;;;7.82;2.35;;;;;;;16.89;41.19;97605.16;10362417;28;20030;-27
2023/01/23 06:43:10;;;;;;;9.13;2.30;;;;;;;16.90;42.42;97601.78;10366137;28;20038;-27
2023/01/23 06:48:11;;;;;;;3.30;2.20;;;;;;;16.88;43.11;97601.75;10363210;28;20303;-28
2023/01/23 06:53:14;;;;;;;6.57;2.13;;;;;;;16.90;43.40;97602.63;10369842;28;20053;-26
2023/01/23 06:58:16;;;;;;;2.88;1.73;;;;;;;16.91;43.52;97613.59;10363601;28;20137;-28
2023/01/23 07:03:19;;;;;;;6.03;2.53;;;;;;;16.76;43.85;97605.69;10359934;28;20121;-27
2023/01/23 07:08:21;;;;;;;6.80;3.83;;;;;;;16.87;43.28;97632.06;10369875;28;20566;-26
2023/01/23 07:13:23;;;;;;;3.13;2.15;;;;;;;16.84;43.36;97637.91;10370323;28;20037;-27
2023/01/23 07:18:27;;;;;;;3.67;2.17;;;;;;;16.85;43.59;97636.25;10368980;28;20018;-27
2023/01/23 07:23:28;;;;;;;4.78;2.20;;;;;;;16.84;43.45;97632.00;10370347;28;20033;-27
2023/01/23 07:28:29;;;;;;;6.05;1.75;;;;;;;16.84;43.61;97627.78;10369386;28;20042;-27
2023/01/23 07:33:30;;;;;;;2.47;1.90;;;;;;;16.83;43.60;97627.78;10367211;28;20037;-27
2023/01/23 07:38:30;;;;;;;2.85;2.03;;;;;;;16.82;43.85;97626.91;10364779;28;20026;-27
2023/01/23 07:43:30;;;;;;;2.80;1.80;;;;;;;16.86;43.59;97628.69;10369260;28;20029;-28
2023/01/23 07:48:31;;;;;;;2.53;2.03;;;;;;;16.82;43.34;97623.53;10369909;28;20038;-27
2023/01/23 07:53:32;;;;;;;2.20;1.53;;;;;;;16.81;43.56;97621.84;10368642;28;20048;-27
2023/01/23 07:58:32;;;;;;;1.95;1.75;;;;;;;16.81;42.77;97629.44;10370949;28;20076;-26
2023/01/23 08:03:32;;;;;;;2.35;2.00;;;;;;;16.80;43.64;97635.28;10369245;28;20071;-28
2023/01/23 08:08:33;;;;;;;3.80;2.20;;;;;;;16.78;43.17;97631.88;10369791;28;20037;-27
2023/01/23 08:13:33;;;;;;;2.80;1.98;;;;;;;16.81;43.31;97642.06;10365424;28;20307;-27
2023/01/23 08:18:34;;;;;;;3.17;1.67;;;;;;;16.78;42.93;97639.47;10366835;28;20022;-27
2023/01/23 08:23:34;;;;;;;2.90;1.80;;;;;;;16.80;42.55;97647.91;10369964;28;20068;-27
2023/01/23 08:28:35;;;;;;;1.95;1.38;;;;;;;16.74;43.62;97642.75;10360398;28;20038;-26
2023/01/23 08:33:37;;;;;;;1.97;1.50;;;;;;;16.77;43.28;97640.28;10364641;28;20386;-26
2023/01/23 08:38:38;;;;;;;1.92;1.45;;;;;;;16.78;43.63;97647.91;10369334;28;20836;-25
2023/01/23 08:43:42;;;;;;;2.55;1.70;;;;;;;16.78;43.47;97652.97;10367886;28;20128;-27
2023/01/23 08:48:42;;;;;;;1.80;1.48;;;;;;;16.79;43.42;97643.69;10374121;28;20036;-26
2023/01/23 08:53:42;;;;;;;1.63;1.30;;;;;;;16.82;43.16;97638.72;10364514;28;20839;-27
2023/01/23 08:58:44;;;;;;;3.67;1.47;;;;;;;16.81;43.15;97634.47;10368715;28;20317;-27
2023/01/23 09:03:45;;;;;;;1.55;1.45;;;;;;;16.78;43.15;97626.81;10363250;28;20036;-27
2023/01/23 09:08:46;;;;;;;1.30;1.20;;;;;;;16.79;43.11;97633.56;10364792;28;20034;-26
2023/01/23 09:13:46;;;;;;;1.48;1.30;;;;;;;16.81;42.62;97626.91;10368338;28;20051;-27
2023/01/23 09:18:47;;;;;;;1.95;1.40;;;;;;;16.81;42.64;97631.94;10364478;28;20038;-26
2023/01/23 09:23:47;;;;;;;1.55;1.40;;;;;;;16.79;42.90;97619.25;10362006;28;20034;-27
2023/01/23 09:28:47;;;;;;;1.40;1.30;;;;;;;16.79;42.94;97624.31;10367209;28;20042;-26
2023/01/23 09:33:48;;;;;;;1.50;1.10;;;;;;;16.80;43.28;97620.09;10361882;28;20316;-27
2023/01/23 09:38:48;;;;;;;2.20;1.27;;;;;;;16.78;43.03;97624.28;10366592;28;20776;-26
2023/01/23 09:43:57;;;;;;;1.63;1.23;;;;;;;16.80;42.18;97630.22;10367057;28;20299;-26
2023/01/23 09:49:27;;;;;;;1.70;1.55;;;;;;;16.77;42.76;97630.16;10363928;28;20080;-26
2023/01/23 09:54:43;;;;;;;1.23;1.10;;;;;;;16.77;42.68;97637.75;10365296;28;20091;-27
2023/01/23 09:59:54;;;;;;;1.38;1.20;;;;;;;16.79;42.99;97633.56;10365255;28;20042;-26
2023/01/23 10:04:57;;;;;;;1.85;1.55;;;;;;;16.79;42.68;97638.63;10359165;28;20068;-27
2023/01/23 10:10:08;;;;;;;2.08;1.80;;;;;;;16.78;42.77;97632.72;10357499;28;20030;-27
2023/01/23 10:15:38;;;;;;;1.25;1.13;;;;;;;16.79;43.06;97629.38;10364283;28;20465;-27
2023/01/23 10:21:04;;;;;;;1.60;1.50;;;;;;;16.78;42.75;97614.16;10366632;28;20029;-26
2023/01/23 10:26:13;;;;;;;1.58;1.48;;;;;;;16.78;42.89;97604.06;10357898;28;20053;-27
2023/01/23 10:31:36;;;;;;;2.53;1.90;;;;;;;16.75;42.80;97606.53;10358661;28;20042;-27
2023/01/23 10:36:41;;;;;;;1.55;1.40;;;;;;;16.75;43.00;97599.78;10366484;28;20030;-26
2023/01/23 10:41:41;;;;;;;2.20;1.75;;;;;;;16.76;43.21;97608.22;10360215;28;20510;-26
2023/01/23 10:46:51;;;;;;;2.00;1.77;;;;;;;16.77;42.81;97588.03;10370347;28;20046;-26
2023/01/23 10:51:51;;;;;;;1.92;1.30;;;;;;;16.76;42.78;97593.06;10373944;28;20065;-28
2023/01/23 10:57:03;;;;;;;2.22;1.50;;;;;;;16.76;42.26;97582.94;10372162;28;20516;-25
2023/01/23 11:02:12;;;;;;;1.65;1.50;;;;;;;16.77;42.80;97588.88;10360530;28;20038;-26
2023/01/23 11:07:14;;;;;;;1.38;1.27;;;;;;;16.73;42.78;97595.53;10372632;28;20127;-27
2023/01/23 11:12:18;;;;;;;1.95;1.45;;;;;;;16.74;42.75;97595.53;10367341;28;20038;-27
2023/01/23 11:17:22;;;;;;;1.38;1.27;;;;;;;16.75;42.88;97581.25;10371092;28;20486;-27
2023/01/23 11:22:27;;;;;;;1.52;1.40;;;;;;;16.73;42.82;97572.78;10371553;28;20040;-27
2023/01/23 11:27:29;;;;;;;1.80;1.60;;;;;;;16.76;42.23;97567.78;10372041;28;20057;-27
2023/01/23 11:32:34;;;;;;;1.60;1.38;;;;;;;16.74;42.23;97560.16;10367627;28;20025;-27
2023/01/23 11:37:38;;;;;;;3.13;1.70;;;;;;;16.74;42.56;97551.72;10371567;28;20080;-26
2023/01/23 11:42:40;;;;;;;2.83;1.73;;;;;;;16.75;42.75;97556.78;10363124;28;20375;-26
2023/01/23 11:47:53;;;;;;;2.58;1.65;;;;;;;16.73;43.63;97547.50;10369514;28;20025;-26
2023/01/23 11:53:32;;;;;;;5.07;1.60;;;;;;;16.71;42.38;97539.00;10371072;28;20088;-27
2023/01/23 11:59:19;;;;;;;6.63;2.22;;;;;;;16.84;43.23;97538.44;10367641;28;20038;-26
2023/01/23 12:04:36;;;;;;;2.45;1.77;;;;;;;16.87;42.85;97536.81;10370629;28;20050;-27
2023/01/23 12:09:42;;;;;;;;;;;;;;;16.90;42.75;97546.16;10361882;28;20478;-26
2023/01/23 12:14:56;;;;;;;2.63;1.77;;;;;;;16.90;43.01;97530.97;10366808;28;20436;-27
2023/01/23 12:20:24;;;;;;;4.07;1.80;;;;;;;16.91;42.03;97523.38;10369714;28;20038;-28
2023/01/23 12:25:39;;;;;;;4.20;2.30;;;;;;;16.95;42.72;97519.25;10368968;28;20053;-27
2023/01/23 12:30:47;;;;;;;3.55;2.72;;;;;;;16.94;42.85;97517.53;10362954;28;20061;-27
2023/01/23 12:35:57;;;;;;;3.05;1.80;;;;;;;16.95;42.41;97509.13;10368612;28;20148;-27
2023/01/23 12:41:10;;;;;;;3.13;2.22;;;;;;;16.96;42.44;97491.47;10366918;28;20268;-27
2023/01/23 12:46:17;;;;;;;3.15;2.83;;;;;;;16.96;41.87;97490.59;10361212;28;20034;-26
2023/01/23 12:51:21;;;;;;;4.45;2.25;;;;;;;17.01;41.37;97486.47;10368861;28;20037;-27
2023/01/23 12:56:26;;;;;;;2.70;1.90;;;;;;;17.02;41.13;97480.59;10367469;28;20405;-27
2023/01/23 13:01:48;;;;;;;3.30;1.83;;;;;;;17.06;41.45;97478.13;10366856;28;20033;-27
2023/01/23 13:07:09;;;;;;;6.25;2.65;;;;;;;17.08;40.98;97471.41;10366490;28;20123;-26
2023/01/23 13:12:21;;;;;;;2.72;2.30;;;;;;;17.02;40.64;97475.53;10367729;28;20069;-27
2023/01/23 13:17:36;;;;;;;5.28;2.33;;;;;;;17.02;41.87;97480.59;10366234;28;20087;-25
2023/01/23 13:22:39;;;;;;;4.38;2.40;;;;;;;16.98;41.40;97474.63;10368020;28;20040;-26
2023/01/23 13:27:46;;;;;;;5.95;2.53;;;;;;;16.97;42.42;97477.97;10363789;28;20427;-28
2023/01/23 13:32:47;;;;;;;6.15;2.75;;;;;;;16.98;42.66;97466.19;10360976;28;20034;-26
2023/01/23 13:37:50;;;;;;;7.65;2.97;;;;;;;16.95;42.50;97463.59;10365465;28;20433;-26
2023/01/23 13:42:50;;;;;;;3.60;2.38;;;;;;;16.86;43.28;97455.84;10363478;28;20049;-26
2023/01/23 13:59:31;;;;;;;4.38;2.85;;;;;;;16.99;42.11;97455.25;10360804;28;20123;-29
2023/01/23 14:09:53;;;;;;;5.53;2.58;;;;;;;17.06;43.00;97450.31;10363001;28;20107;-27
2023/01/23 14:20:17;;;;;;;3.85;2.97;;;;;;;17.30;41.57;97447.31;10372325;28;20122;-26
2023/01/23 14:25:17;;;;;;;5.60;2.30;;;;;;;17.34;41.39;97449.09;10362770;28;20042;-27
2023/01/23 14:30:25;;;;;;;6.25;2.55;;;;;;;17.43;40.61;97449.28;10375930;28;20034;-27
2023/01/23 14:35:25;;;;;;;5.60;2.90;;;;;;;17.47;40.76;97451.00;10373980;28;20121;-27
2023/01/23 14:40:26;;;;;;;3.80;2.60;;;;;;;17.51;40.54;97467.97;10365141;28;20033;-27
2023/01/23 14:45:29;;;;;;;5.72;2.20;;;;;;;17.53;40.32;97461.22;10357050;28;20390;-26
2023/01/23 14:50:29;;;;;;;5.68;3.40;;;;;;;17.50;41.07;97458.66;10373098;28;20493;-26
2023/01/23 14:55:33;;;;;;;5.47;3.25;;;;;;;17.57;40.62;97466.38;10371010;28;20029;-28
2023/01/23 15:00:34;;;;;;;6.32;3.20;;;;;;;17.58;40.37;97457.09;10354301;28;20468;-27
2023/01/23 15:05:39;;;;;;;5.72;3.63;;;;;;;17.58;41.11;97464.69;10368677;28;20038;-28
2023/01/23 15:10:40;;;;;;;5.93;3.08;;;;;;;17.63;41.27;97468.13;10359816;28;20482;-27
2023/01/23 15:15:46;;;;;;;5.33;3.43;;;;;;;17.60;41.28;97463.91;10363040;28;20030;-27
2023/01/23 15:20:58;;;;;;;9.40;3.70;;;;;;;17.66;41.63;97473.28;10369127;28;20050;-27
2023/01/23 15:26:16;;;;;;;5.53;2.80;;;;;;;17.70;40.96;97475.00;10367642;28;20042;-26
2023/01/23 15:31:37;;;;;;;48.63;6.47;;;;;;;17.55;41.00;97464.63;10356656;28;20038;-29
2023/01/23 15:36:38;;;;;;;5.20;3.13;;;;;;;17.46;41.32;97455.22;10358694;28;20501;-27
2023/01/23 15:41:44;;;;;;;4.40;3.10;;;;;;;17.41;42.03;97471.19;10368616;28;20084;-28
2023/01/23 15:46:45;;;;;;;5.32;2.83;;;;;;;17.36;42.24;97472.78;10362036;28;20041;-27
2023/01/23 15:51:46;;;;;;;5.93;3.10;;;;;;;17.32;42.58;97476.06;10371285;28;20137;-27
2023/01/23 15:56:46;;;;;;;5.53;3.10;;;;;;;17.30;42.46;97472.63;10367317;28;20034;-27
2023/01/23 16:01:47;;;;;;;4.57;3.00;;;;;;;17.26;42.85;97473.44;10365460;28;20490;-27
2023/01/23 16:06:47;;;;;;;5.05;2.70;;;;;;;17.25;42.85;97471.72;10370593;28;20337;-27
2023/01/23 16:11:47;;;;;;;3.92;2.75;;;;;;;17.24;42.74;97477.63;10366369;28;20501;-27
2023/01/23 16:16:48;;;;;;;7.35;3.13;;;;;;;17.24;42.81;97487.75;10364212;28;20575;-29
2023/01/23 16:21:48;;;;;;;3.60;3.07;;;;;;;17.26;42.77;97496.19;10368452;28;20041;-27
2023/01/23 16:26:49;;;;;;;8.53;3.03;;;;;;;17.24;42.86;97502.91;10358077;28;20034;-27
2023/01/23 16:31:50;;;;;;;4.88;3.40;;;;;;;17.23;41.79;97502.06;10359978;28;20324;-27
2023/01/23 16:36:54;;;;;;;5.28;3.42;;;;;;;17.14;43.88;97501.06;10368632;28;20461;-26
2023/01/23 16:41:54;;;;;;;7.03;2.83;;;;;;;17.21;43.35;97502.84;10367464;28;20034;-27
2023/01/23 16:46:54;;;;;;;4.63;2.75;;;;;;;17.19;43.78;97505.38;10362297;28;20042;-28
2023/01/23 16:52:00;;;;;;;4.90;2.97;;;;;;;17.20;42.83;97512.13;10369166;28;20117;-28
2023/01/23 16:57:01;;;;;;;6.47;2.92;;;;;;;17.15;44.14;97523.84;10359008;28;20034;-27
2023/01/23 17:02:14;;;;;;;7.20;3.13;;;;;;;17.23;43.09;97526.53;10367306;28;20045;-28
2023/01/23 17:07:15;;;;;;;4.43;2.95;;;;;;;17.25;43.11;97529.94;10368380;28;20544;-27
2023/01/23 17:12:26;;;;;;;6.32;2.75;;;;;;;17.27;42.39;97521.53;10362746;28;20514;-27
2023/01/23 17:17:31;;;;;;;4.47;2.88;;;;;;;17.27;42.31;97520.69;10366058;28;20497;-27
2023/01/23 17:22:41;;;;;;;6.35;3.47;;;;;;;17.23;42.74;97522.31;10367737;28;20030;-27
2023/01/23 17:27:42;;;;;;;4.18;3.10;;;;;;;17.25;42.31;97519.81;10360947;28;20033;-27
2023/01/23 17:32:44;;;;;;;4.72;3.05;;;;;;;17.19;42.75;97524.75;10360747;28;20038;-28
2023/01/23 17:37:45;;;;;;;4.85;3.10;;;;;;;17.16;42.86;97524.72;10363633;28;20091;-27
2023/01/23 17:42:45;;;;;;;4.57;3.00;;;;;;;17.12;42.77;97528.00;10358804;28;20564;-27
2023/01/23 17:47:48;;;;;;;5.25;3.05;;;;;;;17.10;43.33;97529.66;10327226;28;20296;-27
2023/01/23 17:52:51;;;;;;;7.65;2.80;;;;;;;17.07;43.32;97534.66;10358217;28;20187;-27
2023/01/23 17:57:51;;;;;;;4.85;2.80;;;;;;;17.07;43.43;97542.25;10362507;28;20390;-27
2023/01/23 18:02:59;;;;;;;5.23;2.77;;;;;;;17.07;43.29;97535.50;10365689;28;20068;-26
2023/01/23 18:08:00;;;;;;;3.58;2.75;;;;;;;17.03;44.41;97543.88;10359469;28;20042;-27
2023/01/23 18:13:09;;;;;;;5.93;3.07;;;;;;;16.99;44.62;97537.03;10366819;28;20402;-27
2023/01/23 18:18:23;;;;;;;5.20;3.00;;;;;;;16.98;44.51;97547.97;10357401;28;20033;-27
2023/01/23 18:23:25;;;;;;;4.80;2.67;;;;;;;17.00;44.39;97548.03;10365408;28;20033;-27
2023/01/23 18:28:34;;;;;;;4.03;3.25;;;;;;;16.97;44.50;97542.88;10366392;28;20122;-27
2023/01/23 18:34:01;;;;;;;5.57;3.35;;;;;;;16.97;44.24;97542.88;10360709;28;20025;-26
2023/01/23 18:39:16;;;;;;;;;;;;;;;16.97;44.53;97548.81;10364489;28;20050;-28
2023/01/23 18:44:25;;;;;;;5.20;3.50;;;;;;;16.97;44.46;97550.47;10359245;28;19917;-28
2023/01/23 18:49:26;;;;;;;4.47;3.15;;;;;;;16.96;44.01;97551.28;10358183;28;20076;-27
2023/01/23 18:54:26;;;;;;;4.32;2.95;;;;;;;16.97;44.70;97545.41;10354544;28;20030;-27
2023/01/23 18:59:48;;;;;;;4.47;3.03;;;;;;;16.96;44.50;97546.25;10371203;28;20037;-25
2023/01/23 19:05:08;;;;;;;4.53;2.95;;;;;;;16.93;45.12;97541.13;10369266;28;20040;-26
2023/01/23 19:10:16;;;;;;;4.40;3.08;;;;;;;16.96;44.07;97546.25;10358277;28;20030;-28
2023/01/23 19:15:23;;;;;;;4.97;3.20;;;;;;;16.91;44.88;97543.63;10373220;28;20124;-27
2023/01/23 19:20:45;;;;;;;4.05;2.70;;;;;;;16.88;45.01;97548.63;10369712;28;20407;-27
2023/01/23 19:25:46;;;;;;;3.17;2.88;;;;;;;16.87;44.63;97548.59;10368385;28;20539;-26
2023/01/23 19:30:47;;;;;;;4.47;3.47;;;;;;;16.88;44.37;97553.69;10351382;28;20042;-27
2023/01/23 19:35:50;;;;;;;6.32;3.45;;;;;;;16.87;44.65;97551.13;10366396;28;20411;-27
2023/01/23 19:40:50;;;;;;;3.45;2.75;;;;;;;16.94;44.02;97563.06;10366109;28;20030;-27
2023/01/23 19:45:50;;;;;;;4.25;3.13;;;;;;;17.01;42.82;97554.78;10361060;28;20033;-27
2023/01/23 19:50:51;;;;;;;3.07;2.77;;;;;;;17.06;43.14;97563.31;10364763;28;20050;-27
2023/01/23 19:55:51;;;;;;;4.27;2.97;;;;;;;17.03;43.82;97559.06;10358897;28;20095;-27
2023/01/23 20:00:51;;;;;;;4.30;3.00;;;;;;;17.01;44.24;97559.84;10367502;28;20049;-27
2023/01/23 20:05:53;;;;;;;5.00;3.40;;;;;;;16.93;44.76;97561.38;10353317;28;20064;-27
2023/01/23 20:10:53;;;;;;;5.93;3.30;;;;;;;16.95;44.13;97570.69;10359908;28;20037;-27
2023/01/23 20:15:54;;;;;;;5.77;3.07;;;;;;;16.94;43.96;97570.66;10363525;28;20025;-28
2023/01/23 20:20:57;;;;;;;5.17;3.30;;;;;;;16.96;43.46;97577.47;10360684;28;20498;-27
2023/01/23 20:25:59;;;;;;;3.70;3.20;;;;;;;16.92;44.08;97564.72;10360075;28;20324;-27
2023/01/23 20:31:08;;;;;;;4.30;3.40;;;;;;;16.90;44.81;97566.38;10364655;28;20125;-27
2023/01/23 20:36:12;;;;;;;4.00;2.97;;;;;;;16.89;44.95;97564.69;10358219;28;20391;-27
2023/01/23 20:41:15;;;;;;;3.92;3.40;;;;;;;16.92;44.80;97574.84;10353930;28;20092;-26
2023/01/23 20:46:17;;;;;;;5.60;3.03;;;;;;;16.93;44.65;97572.34;10368568;28;20520;-27
2023/01/23 20:51:18;;;;;;;6.53;4.40;;;;;;;16.95;45.04;97569.84;10357641;28;20427;-27
2023/01/23 20:56:26;;;;;;;5.03;3.40;;;;;;;16.95;45.25;97575.75;10351515;28;20112;-27
2023/01/23 21:02:21;;;;;;;5.88;3.80;;;;;;;16.98;45.85;97577.50;10360961;28;20300;-27
2023/01/23 21:06:50;;;;;;;4.20;3.65;;;;;;;16.95;47.18;97564.78;10366385;28;20030;-27
2023/01/23 21:11:51;;;;;;;4.68;3.70;;;;;;;16.95;47.18;97560.59;10365598;28;20042;-27
2023/01/23 21:16:52;;;;;;;6.13;3.70;;;;;;;16.89;47.89;97547.81;10361658;28;20034;-27
2023/01/23 21:21:52;;;;;;;5.80;2.88;;;;;;;16.91;47.23;97555.44;10368513;28;20116;-27
2023/01/23 21:26:53;;;;;;;5.63;3.30;;;;;;;16.89;47.08;97562.97;10362362;28;20080;-27
2023/01/23 21:31:53;;;;;;;5.60;3.08;;;;;;;16.89;47.15;97555.41;10357049;28;20041;-27
2023/01/23 21:36:54;;;;;;;4.18;3.22;;;;;;;16.82;47.96;97558.63;10365955;28;20056;-27
2023/01/23 21:41:54;;;;;;;4.40;3.00;;;;;;;16.86;47.83;97554.47;10364882;28;20532;-27
2023/01/23 21:46:54;;;;;;;5.27;3.43;;;;;;;16.86;47.90;97557.88;10359930;28;20088;-27
2023/01/23 21:51:55;;;;;;;3.97;2.77;;;;;;;16.83;48.56;97559.50;10363847;28;20033;-26
2023/01/23 21:56:55;;;;;;;5.23;3.40;;;;;;;16.84;48.47;97556.97;10372522;28;20043;-27
2023/01/23 22:01:55;;;;;;;3.67;2.93;;;;;;;16.85;48.48;97557.84;10361663;28;20057;-27
2023/01/23 22:06:57;;;;;;;7.13;3.60;;;;;;;16.81;48.79;97571.25;10365597;28;20049;-27
2023/01/23 22:11:57;;;;;;;4.80;2.95;;;;;;;16.82;48.51;97567.91;10366525;28;20041;-26
2023/01/23 22:16:58;;;;;;;4.37;2.73;;;;;;;16.83;48.73;97579.72;10365037;28;20038;-27
2023/01/23 22:21:58;;;;;;;4.63;3.17;;;;;;;16.82;48.49;97583.06;10366482;28;20030;-27
2023/01/23 22:26:58;;;;;;;4.47;3.17;;;;;;;16.83;48.90;97579.72;10358605;28;20042;-27
2023/01/23 22:31:59;;;;;;;3.87;3.30;;;;;;;16.81;49.02;97577.16;10364971;28;20041;-27
2023/01/23 22:36:59;;;;;;;5.63;3.30;;;;;;;16.82;48.71;97578.84;10367217;28;20038;-27
2023/01/23 22:42:01;;;;;;;4.97;3.00;;;;;;;16.80;48.92;97570.38;10370306;28;20042;-27
2023/01/23 22:47:02;;;;;;;6.50;3.13;;;;;;;16.82;48.90;97562.84;10366654;28;20457;-28
2023/01/23 22:52:02;;;;;;;4.93;3.25;;;;;;;16.85;48.37;97573.00;10374268;28;20099;-27
2023/01/23 22:57:02;;;;;;;9.55;3.25;;;;;;;16.85;48.47;97573.00;10372361;28;20401;-27
2023/01/23 23:02:03;;;;;;;4.57;2.90;;;;;;;16.82;48.68;97572.97;10371752;28;20038;-27
2023/01/23 23:07:03;;;;;;;3.20;2.57;;;;;;;16.82;48.64;97571.25;10372948;28;20107;-27
2023/01/23 23:12:04;;;;;;;3.60;3.00;;;;;;;16.84;48.71;97576.38;10370554;28;20045;-27
2023/01/23 23:17:04;;;;;;;3.13;2.83;;;;;;;16.83;47.75;97574.66;10360016;28;20054;-27
2023/01/23 23:22:05;;;;;;;3.03;2.73;;;;;;;16.81;48.39;97578.84;10373287;28;20038;-28
2023/01/23 23:27:05;;;;;;;3.90;2.95;;;;;;;16.80;48.38;97579.63;10365482;28;20053;-27
2023/01/23 23:32:05;;;;;;;4.83;2.53;;;;;;;16.81;48.47;97573.78;10365351;28;20048;-27
2023/01/23 23:37:06;;;;;;;3.47;2.70;;;;;;;16.82;48.38;97575.50;10372238;28;20057;-27
2023/01/23 23:42:06;;;;;;;5.73;2.93;;;;;;;16.80;48.48;97574.59;10370541;28;20046;-27
2023/01/23 23:47:07;;;;;;;4.38;2.47;;;;;;;16.81;48.17;97576.31;10365200;28;20261;-27
2023/01/23 23:52:07;;;;;;;7.88;2.83;;;;;;;16.80;48.29;97577.13;10370917;28;20044;-27
2023/01/23 23:57:08;;;;;;;5.90;3.03;;;;;;;16.80;48.56;97572.06;10369898;28;20029;-27
